Latest Weather Observations for Lihou Reef Lighthouse

IDQ60801

Issued at 9:35 pm EST Friday 1 August 2014 (issued every 30 minutes, with the page automatically refreshed every 10 minutes)

About weather observations | Map of weather stations | Latest weather observations for QLD | Other Formats
Station Details ID: 200880 Name: LIHOU REEF LIGHTHOUSE Lat: -17.13 Lon: 152.15 Height: 0.0 m
Data from the previous 72 hours. | See also: Recent months for locations in Queensland
Date/Time
EST
Temp
°C
App
Temp
°C
Dew
Point
Rel
Hum
%
Delta-T
°C
Wind Press
QNH
hPa
Press
MSL
hPa
Rain
since 9 am
mm
Dir
 
Spd
km/h
Gust
km/h
Spd
kts
Gust
kts
01/09:30pm 23.5 - - - - S 7 9 4 5 1017.2 - -
01/09:00pm 23.6 - - - - S 4 7 2 4 1017.2 1017.1 -
01/08:30pm 23.5 - - - - S 6 7 3 4 1017.0 - -
01/08:00pm 23.6 - - - - S 4 7 2 4 1016.9 1016.8 -
01/07:30pm 23.7 - - - - ESE 4 6 2 3 1016.7 - -
01/07:00pm 23.7 - - - - CALM 0 0 0 0 1016.3 1016.2 -
01/06:30pm 23.7 - - - - CALM 0 0 0 0 1015.9 - -
01/06:00pm 23.8 - - - - SE 2 4 1 2 1015.7 1015.6 -
01/05:30pm 24.2 - - - - CALM 0 0 0 0 1015.6 - -
01/05:00pm 25.0 - - - - ESE 2 4 1 2 1015.5 1015.4 -
01/04:30pm 25.5 - - - - CALM 0 0 0 0 1015.3 - -
01/04:00pm 24.8 - - - - CALM 0 0 0 0 1015.3 1015.2 -
01/03:30pm 24.8 - - - - E 4 7 2 4 1015.1 - -
01/03:00pm 24.9 - - - - ESE 6 7 3 4 1015.0 1014.9 -
01/02:30pm 24.9 - - - - SE 2 6 1 3 1015.2 - -
01/02:00pm 25.0 - - - - SE 4 6 2 3 1015.4 1015.3 -
01/01:30pm 25.1 - - - - ESE 6 7 3 4 1015.5 - -
01/01:00pm 24.6 - - - - E 6 7 3 4 1015.8 1015.7 -
01/12:30pm 24.6 - - - - E 7 11 4 6 1016.1 - -
01/12:00pm 24.3 - - - - E 7 9 4 5 1016.3 1016.2 -
01/11:30am 24.2 - - - - E 7 9 4 5 1016.6 - -
01/11:00am 24.1 - - - - E 9 13 5 7 1016.9 1016.8 -
01/10:30am 24.2 - - - - E 11 13 6 7 1017.2 - -
01/10:00am 24.3 - - - - E 11 13 6 7 1017.2 1017.1 -
01/09:30am 24.7 - - - - ESE 13 15 7 8 1017.2 - -
01/09:00am 24.4 - - - - E 15 17 8 9 1017.0 1016.9 -
01/08:30am 24.1 - - - - E 13 15 7 8 1016.8 - -
01/08:00am 24.1 - - - - E 13 17 7 9 1016.6 1016.5 -
01/07:30am 24.0 - - - - E 15 17 8 9 1016.5 - -
01/07:00am 23.6 - - - - E 13 17 7 9 1016.3 1016.2 -
01/06:30am 23.5 - - - - E 13 15 7 8 1016.3 - -
01/06:00am 23.5 - - - - E 15 19 8 10 1016.1 1016.0 -
01/05:30am 23.3 - - - - E 17 19 9 10 1015.8 - -
01/05:00am 23.5 - - - - E 17 20 9 11 1015.5 1015.4 -
01/04:30am 23.4 - - - - E 15 19 8 10 1015.5 - -
01/04:00am 23.4 - - - - E 19 20 10 11 1015.5 1015.4 -
01/03:30am 23.4 - - - - E 17 19 9 10 1015.6 - -
01/03:00am 23.3 - - - - E 15 17 8 9 1015.8 1015.7 -
01/02:30am 23.6 - - - - E 15 17 8 9 1016.0 - -
01/02:00am 23.5 - - - - E 17 20 9 11 1016.1 1016.0 -
01/01:30am 23.5 - - - - E 17 19 9 10 1016.4 - -
01/01:00am 23.5 - - - - E 17 20 9 11 1016.7 1016.6 -
01/12:30am 23.4 - - - - E 19 22 10 12 1016.8 - -
01/12:00am 23.4 - - - - ESE 17 20 9 11 1017.0 1016.9 -
 
Date/Time
EST
Temp
°C
App
Temp
°C
Dew
Point
Rel
Hum
%
Delta-T
°C
Wind Press
QNH
hPa
Press
MSL
hPa
Rain
since 9 am
mm
Dir
 
Spd
km/h
Gust
km/h
Spd
kts
Gust
kts
31/11:30pm 23.5 - - - - E 19 24 10 13 1017.0 - -
31/11:00pm 22.9 - - - - ESE 17 22 9 12 1017.1 1017.0 -
31/10:30pm 23.0 - - - - ESE 26 28 14 15 1017.0 - -
31/10:00pm 22.9 - - - - SE 24 26 13 14 1017.4 1017.3 -
31/09:30pm 22.9 - - - - ESE 20 24 11 13 1017.5 - -
31/09:00pm 22.8 - - - - SE 22 28 12 15 1017.4 1017.3 -
31/08:30pm 23.2 - - - - SE 24 28 13 15 1017.3 - -
31/08:00pm 23.4 - - - - SE 19 24 10 13 1017.1 1017.0 -
31/07:30pm 23.3 - - - - SE 20 24 11 13 1016.7 - -
31/07:00pm 23.2 - - - - SE 20 24 11 13 1016.5 1016.4 -
31/06:30pm 23.4 - - - - SSE 22 26 12 14 1016.2 - -
31/06:00pm 22.8 - - - - SSE 24 28 13 15 1015.9 1015.8 -
31/05:30pm 22.9 - - - - SE 24 28 13 15 1015.7 - -
31/05:00pm 22.9 - - - - SE 24 28 13 15 1015.6 1015.5 -
31/04:30pm 23.1 - - - - SE 24 28 13 15 1015.5 - -
31/04:00pm 23.2 - - - - SE 24 28 13 15 1015.4 1015.3 -
31/03:30pm 23.6 - - - - ESE 22 26 12 14 1015.2 - -
31/03:00pm 23.4 - - - - ESE 22 26 12 14 1015.3 1015.2 -
31/02:30pm 23.9 - - - - ESE 24 26 13 14 1015.3 - -
31/02:00pm 23.8 - - - - ESE 19 20 10 11 1015.5 1015.4 -
31/01:30pm 24.1 - - - - ESE 22 26 12 14 1015.6 - -
31/01:00pm 24.0 - - - - ESE 22 28 12 15 1015.9 1015.8 -
31/12:30pm 24.3 - - - - ESE 20 24 11 13 1016.2 - -
31/12:00pm 24.2 - - - - ESE 20 22 11 12 1016.6 1016.5 -
31/11:30am 24.1 - - - - ESE 20 24 11 13 1017.0 - -
31/11:00am 24.3 - - - - ESE 22 26 12 14 1017.4 1017.3 -
31/10:30am 24.2 - - - - ESE 22 26 12 14 1017.6 - -
31/10:00am 24.5 - - - - ESE 20 24 11 13 1017.9 1017.8 -
31/09:30am 24.3 - - - - ESE 22 28 12 15 1018.1 - -
31/09:00am 23.9 - - - - ESE 24 30 13 16 1018.1 1018.0 -
31/08:30am 24.0 - - - - ESE 26 30 14 16 1018.0 - -
31/08:00am 24.0 - - - - ESE 22 26 12 14 1017.9 1017.8 -
31/07:30am 23.7 - - - - ESE 20 24 11 13 1017.8 - -
31/07:00am 23.6 - - - - ESE 20 24 11 13 1017.5 1017.4 -
31/06:30am 23.3 - - - - ESE 22 26 12 14 1017.3 - -
31/06:00am 23.4 - - - - ESE 24 30 13 16 1017.1 1017.0 -
31/05:30am 23.3 - - - - ESE 24 28 13 15 1017.0 - -
31/05:00am 23.2 - - - - ESE 22 24 12 13 1016.9 1016.8 -
31/04:30am 22.4 - - - - SSE 19 24 10 13 1016.8 - -
31/04:00am 22.2 - - - - SSE 26 30 14 16 1016.7 1016.6 -
31/03:30am 22.4 - - - - SE 28 30 15 16 1016.6 - -
31/03:00am 22.8 - - - - ESE 26 30 14 16 1016.8 1016.7 -
31/02:30am 23.0 - - - - SE 24 30 13 16 1016.9 - -
31/02:00am 23.3 - - - - ESE 24 26 13 14 1017.3 1017.2 -
31/01:30am 23.4 - - - - ESE 24 28 13 15 1017.4 - -
31/01:00am 23.2 - - - - ESE 24 28 13 15 1017.7 1017.6 -
31/12:30am 23.4 - - - - ESE 24 30 13 16 1017.9 - -
31/12:00am 23.3 - - - - ESE 28 33 15 18 1018.1 1018.0 -
 
Date/Time
EST
Temp
°C
App
Temp
°C
Dew
Point
Rel
Hum
%
Delta-T
°C
Wind Press
QNH
hPa
Press
MSL
hPa
Rain
since 9 am
mm
Dir
 
Spd
km/h
Gust
km/h
Spd
kts
Gust
kts
30/11:30pm 23.1 - - - - ESE 28 33 15 18 1018.2 - -
30/11:00pm 23.1 - - - - ESE 28 33 15 18 1018.5 1018.4 -
30/10:30pm 23.0 - - - - ESE 28 33 15 18 1018.6 - -
30/10:00pm 23.1 - - - - ESE 30 33 16 18 1018.6 1018.5 -
30/09:30pm 23.1 - - - - ESE 28 33 15 18 1018.7 - -
30/09:00pm 22.7 - - - - ESE 30 37 16 20 1018.4 1018.3 -
30/08:30pm 23.0 - - - - ESE 32 37 17 20 1018.2 - -
30/08:00pm 23.1 - - - - ESE 32 35 17 19 1018.1 1018.0 -
30/07:30pm 23.0 - - - - SE 32 39 17 21 1017.7 - -
30/07:00pm 23.2 - - - - SE 28 33 15 18 1017.6 1017.5 -
30/06:30pm 23.2 - - - - SSE 28 32 15 17 1017.5 - -
30/06:00pm 23.0 - - - - SE 30 35 16 19 1017.2 1017.1 -
30/05:30pm 23.3 - - - - SE 28 33 15 18 1017.0 - -
30/05:00pm 23.4 - - - - SE 30 35 16 19 1016.8 1016.7 -
30/04:30pm 23.5 - - - - SE 33 37 18 20 1016.6 - -
30/04:00pm 23.4 - - - - SE 33 39 18 21 1016.4 1016.3 -
30/03:30pm 23.5 - - - - SE 33 39 18 21 1016.2 - -
30/03:00pm 23.4 - - - - SE 35 43 19 23 1016.3 1016.2 -
30/02:30pm 23.4 - - - - SE 37 41 20 22 1016.3 - -
30/02:00pm 23.3 - - - - ESE 33 41 18 22 1016.5 1016.4 -
30/01:30pm 23.5 - - - - ESE 35 41 19 22 1016.9 - -
30/01:00pm 24.2 - - - - ESE 30 37 16 20 1017.3 1017.2 -
30/12:30pm 24.0 - - - - ESE 30 35 16 19 1017.9 - -
30/12:00pm 23.8 - - - - SE 33 39 18 21 1018.2 1018.1 -
30/11:30am 23.7 - - - - SE 35 43 19 23 1018.6 - -
30/11:00am 23.8 - - - - SE 41 50 22 27 1018.9 1018.8 -
30/10:30am 23.7 - - - - SE 39 46 21 25 1019.3 - -
30/10:00am 23.7 - - - - SE 37 44 20 24 1019.8 1019.7 -
30/09:30am 23.6 - - - - SE 35 41 19 22 1020.1 - -
30/09:00am 23.7 - - - - ESE 35 41 19 22 1020.1 1020.0 -
30/08:30am 23.7 - - - - ESE 37 43 20 23 1019.9 - -
30/08:00am 23.7 - - - - SE 37 44 20 24 1019.7 1019.6 -
30/07:30am 23.6 - - - - SE 32 39 17 21 1019.5 - -
30/07:00am 23.6 - - - - SE 35 41 19 22 1019.2 1019.1 -
30/06:30am 23.5 - - - - SE 32 37 17 20 1018.7 - -
30/06:00am 23.8 - - - - SE 30 33 16 18 1018.5 1018.4 -
30/05:30am 23.7 - - - - SE 28 32 15 17 1018.2 - -
30/05:00am 23.5 - - - - SE 26 32 14 17 1017.9 1017.8 -
30/04:30am 23.5 - - - - SE 26 30 14 16 1017.8 - -
30/04:00am 23.5 - - - - SE 26 30 14 16 1017.6 1017.5 -
30/03:30am 23.4 - - - - SE 26 32 14 17 1017.6 - -
30/03:00am 23.3 - - - - SE 30 33 16 18 1017.7 1017.6 -
30/02:30am 23.2 - - - - SE 30 33 16 18 1017.8 - -
30/02:00am 23.3 - - - - SE 20 24 11 13 1018.2 1018.1 -
30/01:30am 23.4 - - - - SSE 13 17 7 9 1018.5 - -
30/01:00am 23.2 - - - - ESE 30 33 16 18 1018.7 1018.6 -
30/12:30am 23.2 - - - - ESE 26 32 14 17 1019.0 - -
30/12:00am 23.2 - - - - SE 26 32 14 17 1019.3 1019.2 -
 
Date/Time
EST
Temp
°C
App
Temp
°C
Dew
Point
Rel
Hum
%
Delta-T
°C
Wind Press
QNH
hPa
Press
MSL
hPa
Rain
since 9 am
mm
Dir
 
Spd
km/h
Gust
km/h
Spd
kts
Gust
kts
29/11:30pm 23.3 - - - - SE 30 33 16 18 1019.3 - -
29/11:00pm 23.2 - - - - ESE 33 39 18 21 1019.2 1019.1 -
29/10:30pm 23.2 - - - - ESE 30 35 16 19 1019.3 - -
29/10:00pm 22.8 - - - - ESE 26 32 14 17 1019.5 1019.4 -

Other Formats:

Comma delimited format used in spreadsheet applications
http://www.bom.gov.au/fwo/IDQ60801/IDQ60801.94293.axf

JavaScript Object Notation format (JSON) in row-major order
http://www.bom.gov.au/fwo/IDQ60801/IDQ60801.94293.json